Time;durP1;ratioP1;P1;durP2;ratioP2;P2;SDS_P1;SDS_P2;PMS_P1;PMS_P2;Temp;Humidity;BMP_temperature;BMP_pressure;BME280_temperature;BME280_humidity;BME280_pressure;Samples;Min_cycle;Max_cycle;Signal;HPM_P1;HPM_P2
2022/08/18 00:02:12;;;;;;;10.45;7.50;;;;;;;21.49;100.00;97808.06;1686276;83;28150;-87
2022/08/18 00:04:39;;;;;;;8.00;7.03;;;;;;;21.48;100.00;97805.61;1648377;83;28167;-89
2022/08/18 00:07:11;;;;;;;9.88;7.80;;;;;;;21.42;100.00;97803.20;1647972;84;28171;-87
2022/08/18 00:09:38;;;;;;;;;;;;;;;21.25;100.00;97802.63;1687419;83;28233;-87
2022/08/18 00:12:07;;;;;;;10.40;7.72;;;;;;;21.06;100.00;97801.88;1671491;83;24592;-87
2022/08/18 00:14:35;;;;;;;10.15;7.42;;;;;;;20.96;100.00;97809.84;1665685;83;28075;-87
2022/08/18 00:17:03;;;;;;;11.40;7.83;;;;;;;20.96;100.00;97804.52;1665861;83;28124;-90
2022/08/18 00:19:29;;;;;;;10.38;7.42;;;;;;;21.03;100.00;97800.94;1661006;83;28141;-87
2022/08/18 00:21:56;;;;;;;8.75;7.42;;;;;;;21.10;100.00;97800.52;1650545;84;43086;-87
2022/08/18 00:24:25;;;;;;;10.23;7.97;;;;;;;21.10;100.00;97805.83;1647991;83;28285;-89
2022/08/18 00:26:53;;;;;;;9.28;7.80;;;;;;;21.10;100.00;97801.02;1684261;83;28155;-88
2022/08/18 00:29:23;;;;;;;9.08;7.40;;;;;;;21.13;100.00;97797.96;1667937;83;28078;-87
2022/08/18 00:31:49;;;;;;;9.05;7.58;;;;;;;21.16;100.00;97802.45;1663109;84;28023;-87
2022/08/18 00:34:15;;;;;;;11.57;8.40;;;;;;;21.21;100.00;97807.20;1665883;82;28130;-86
2022/08/18 00:36:42;;;;;;;10.95;8.33;;;;;;;21.21;100.00;97812.02;1681121;83;28114;-90
2022/08/18 00:39:08;;;;;;;11.33;8.93;;;;;;;21.23;100.00;97811.81;1671924;83;28095;-90
2022/08/18 00:41:35;;;;;;;11.33;8.25;;;;;;;21.20;100.00;97807.70;1659670;84;28167;-90
2022/08/18 00:44:04;;;;;;;10.70;7.83;;;;;;;21.15;100.00;97807.45;1666984;83;28118;-86
2022/08/18 00:46:34;;;;;;;11.03;8.50;;;;;;;21.16;100.00;97813.60;1673992;83;28045;-86
2022/08/18 00:49:01;;;;;;;12.28;9.78;;;;;;;21.15;100.00;97802.12;1666383;84;28118;-86
2022/08/18 00:51:35;;;;;;;10.63;8.88;;;;;;;21.13;100.00;97802.78;1667907;84;28024;-87
2022/08/18 00:54:20;;;;;;;10.78;8.60;;;;;;;21.11;100.00;97800.01;1659796;84;28138;-88
2022/08/18 00:56:49;;;;;;;12.05;8.40;;;;;;;21.08;100.00;97802.53;1646131;84;28085;-87
2022/08/18 00:59:30;;;;;;;13.50;9.03;;;;;;;21.04;100.00;97795.94;1661168;84;28178;-86
2022/08/18 01:02:02;;;;;;;10.65;8.03;;;;;;;20.94;100.00;97803.41;1673676;83;28053;-90
2022/08/18 01:04:50;;;;;;;11.12;8.85;;;;;;;20.91;100.00;97793.13;1676364;84;28063;-86
2022/08/18 01:07:22;;;;;;;9.25;7.95;;;;;;;20.94;100.00;97783.95;1656250;84;28161;-86
2022/08/18 01:09:50;;;;;;;11.55;8.13;;;;;;;20.91;100.00;97785.64;1635330;84;28150;-87
2022/08/18 01:12:18;;;;;;;13.28;8.48;;;;;;;20.81;100.00;97792.61;1637956;84;28178;-85
2022/08/18 01:14:52;;;;;;;9.88;7.70;;;;;;;20.73;100.00;97796.72;1662429;84;28135;-85
2022/08/18 01:22:59;;;;;;;9.48;7.53;;;;;;;20.77;100.00;97784.69;1662244;83;28108;-86
2022/08/18 01:28:10;;;;;;;9.43;7.67;;;;;;;20.68;100.00;97775.98;1662504;83;28157;-90
2022/08/18 01:30:49;;;;;;;11.30;8.10;;;;;;;20.49;100.00;97773.92;1676858;83;28186;-90
2022/08/18 01:33:18;;;;;;;10.88;7.75;;;;;;;20.35;100.00;97772.91;1711956;81;28013;-90
2022/08/18 01:35:48;;;;;;;9.28;7.70;;;;;;;20.34;100.00;97769.13;1694769;81;28136;-88
2022/08/18 01:38:17;;;;;;;10.32;7.47;;;;;;;20.34;100.00;97775.78;1705068;81;28115;-87
2022/08/18 01:40:45;;;;;;;9.63;7.78;;;;;;;20.30;100.00;97771.28;1698651;81;28171;-90
2022/08/18 01:43:13;;;;;;;10.72;8.00;;;;;;;20.33;100.00;97769.63;1695943;81;28222;-87
2022/08/18 01:45:40;;;;;;;9.30;8.33;;;;;;;20.32;100.00;97769.81;1697514;81;28187;-86
2022/08/18 01:48:06;;;;;;;10.98;7.67;;;;;;;20.38;100.00;97777.05;1698056;81;28187;-86
2022/08/18 01:50:34;;;;;;;10.70;8.48;;;;;;;20.34;100.00;97784.58;1685966;81;28617;-86
2022/08/18 01:53:04;;;;;;;12.25;8.15;;;;;;;20.24;100.00;97778.66;1631893;83;28284;-86
2022/08/18 01:55:33;;;;;;;9.80;7.97;;;;;;;20.25;100.00;97773.67;1665949;83;28205;-86
2022/08/18 01:58:03;;;;;;;10.28;8.33;;;;;;;20.34;100.00;97776.60;1656949;83;28146;-86
2022/08/18 02:00:31;;;;;;;10.08;8.10;;;;;;;20.42;100.00;97776.98;1656834;83;28109;-87
2022/08/18 02:03:00;;;;;;;10.40;7.75;;;;;;;20.33;100.00;97773.62;1695382;81;28185;-86
2022/08/18 02:05:39;;;;;;;10.18;8.65;;;;;;;20.29;100.00;97770.95;1665541;83;28129;-89
2022/08/18 02:08:06;;;;;;;11.80;8.45;;;;;;;20.24;100.00;97778.66;1661367;83;28143;-87
2022/08/18 02:10:34;;;;;;;12.47;8.23;;;;;;;20.17;100.00;97776.44;1677432;82;28161;-86
2022/08/18 02:13:00;;;;;;;9.63;7.78;;;;;;;20.26;100.00;97779.31;1675976;83;28140;-85
2022/08/18 02:15:27;;;;;;;9.03;7.50;;;;;;;20.30;100.00;97780.58;1638392;84;43102;-86
2022/08/18 02:17:53;;;;;;;11.18;7.75;;;;;;;20.31;100.00;97790.70;1643368;84;28246;-87
2022/08/18 02:20:19;;;;;;;8.65;7.50;;;;;;;20.26;100.00;97788.61;1640031;83;28163;-85
2022/08/18 02:22:47;;;;;;;9.98;7.47;;;;;;;20.24;100.00;97797.26;1635514;84;28176;-89
2022/08/18 02:25:15;;;;;;;9.43;7.37;;;;;;;20.24;100.00;97797.76;1677400;82;28158;-87
2022/08/18 02:27:40;;;;;;;10.13;7.65;;;;;;;20.23;100.00;97796.96;1692809;82;28171;-85
2022/08/18 02:30:11;;;;;;;9.38;8.00;;;;;;;20.23;100.00;97794.30;1679678;81;43104;-88
2022/08/18 02:32:38;;;;;;;10.13;7.90;;;;;;;20.20;100.00;97797.31;1675731;82;28280;-86
2022/08/18 02:35:06;;;;;;;10.15;8.20;;;;;;;20.12;100.00;97805.89;1695041;81;28238;-85
2022/08/18 02:37:33;;;;;;;11.15;8.00;;;;;;;20.00;100.00;97808.99;1699376;81;28125;-86
2022/08/18 02:40:00;;;;;;;9.48;8.15;;;;;;;19.96;100.00;97808.22;1688837;81;28143;-86
2022/08/18 02:42:27;;;;;;;9.90;8.15;;;;;;;19.80;100.00;97806.52;1691608;82;28270;-86
2022/08/18 02:44:54;;;;;;;8.50;7.55;;;;;;;19.67;100.00;97802.34;1635993;83;28188;-86
2022/08/18 02:47:21;;;;;;;9.93;8.03;;;;;;;19.55;100.00;97801.11;1680976;81;28114;-86
2022/08/18 02:49:48;;;;;;;11.48;8.08;;;;;;;19.47;100.00;97795.39;1702352;81;28136;-86
2022/08/18 02:54:40;;;;;;;9.50;6.97;;;;;;;19.34;100.00;97792.46;1701444;81;28124;-84
2022/08/18 02:57:09;;;;;;;10.63;7.47;;;;;;;19.32;100.00;97792.30;1715442;81;28086;-88
2022/08/18 02:59:38;;;;;;;10.18;8.28;;;;;;;19.28;100.00;97785.70;1713712;81;28226;-86
2022/08/18 03:02:06;;;;;;;12.00;9.18;;;;;;;19.25;100.00;97787.41;1720191;81;28242;-85
2022/08/18 03:04:35;;;;;;;10.48;8.33;;;;;;;19.24;100.00;97785.25;1687639;82;28216;-86
2022/08/18 03:07:09;;;;;;;12.20;8.48;;;;;;;19.38;100.00;97780.48;1692513;81;28220;-88
2022/08/18 03:09:33;;;;;;;8.17;6.40;;;;;;;19.38;100.00;97790.27;1710268;81;34058;-86
2022/08/18 03:11:59;;;;;;;9.05;7.65;;;;;;;19.21;100.00;97786.41;1696136;82;28169;-86
2022/08/18 03:14:27;;;;;;;9.65;7.67;;;;;;;19.13;100.00;97784.33;1715996;81;28089;-89
2022/08/18 03:16:53;;;;;;;9.65;8.03;;;;;;;19.09;100.00;97785.70;1717898;81;28142;-89
2022/08/18 03:19:19;;;;;;;8.45;7.53;;;;;;;19.09;100.00;97784.37;1696089;81;28219;-87
2022/08/18 03:21:45;;;;;;;12.37;8.25;;;;;;;19.11;100.00;97782.34;1715619;81;28495;-89
2022/08/18 03:24:12;;;;;;;9.60;8.38;;;;;;;19.22;100.00;97791.22;1702637;81;43083;-86
2022/08/18 03:26:41;;;;;;;9.63;7.33;;;;;;;19.41;100.00;97792.58;1704674;81;28232;-86
2022/08/18 03:29:09;;;;;;;9.03;7.75;;;;;;;19.51;100.00;97794.02;1701705;81;28135;-89
2022/08/18 03:31:37;;;;;;;10.20;7.70;;;;;;;19.54;100.00;97792.81;1685785;82;28161;-85
2022/08/18 03:34:05;;;;;;;8.85;7.85;;;;;;;19.52;100.00;97794.84;1679183;81;28173;-85
2022/08/18 03:36:34;;;;;;;9.33;7.70;;;;;;;19.51;100.00;97799.83;1654509;83;28170;-88
2022/08/18 03:39:05;;;;;;;9.00;7.95;;;;;;;19.55;100.00;97795.80;1668537;82;28123;-88
2022/08/18 03:41:32;;;;;;;9.90;7.55;;;;;;;19.63;100.00;97799.73;1676865;82;28209;-86
2022/08/18 03:44:00;;;;;;;12.30;8.65;;;;;;;19.68;100.00;97804.49;1634548;84;28157;-85
2022/08/18 03:46:26;;;;;;;12.25;8.58;;;;;;;19.70;100.00;97808.60;1657075;83;28125;-85
2022/08/18 03:48:55;;;;;;;10.50;8.40;;;;;;;19.71;100.00;97805.45;1690725;81;28148;-84
2022/08/18 03:51:24;;;;;;;13.30;9.40;;;;;;;19.70;100.00;97813.08;1675916;81;28127;-88
2022/08/18 03:53:53;;;;;;;11.50;8.73;;;;;;;19.73;100.00;97810.91;1700577;81;28229;-85
2022/08/18 03:56:22;;;;;;;10.43;8.60;;;;;;;19.76;100.00;97810.54;1699226;81;28136;-85
2022/08/18 03:58:52;;;;;;;11.30;9.50;;;;;;;19.76;100.00;97813.70;1688133;81;28142;-85
2022/08/18 04:01:21;;;;;;;14.13;9.35;;;;;;;19.79;100.00;97816.84;1697171;82;28179;-85
2022/08/18 04:03:51;;;;;;;12.37;9.20;;;;;;;19.82;100.00;97818.29;1686871;81;28157;-85
2022/08/18 04:06:21;;;;;;;13.32;9.78;;;;;;;19.84;100.00;97805.67;1629218;84;28153;-85
2022/08/18 04:08:53;;;;;;;11.90;10.15;;;;;;;19.85;100.00;97811.30;1692638;81;28156;-88
2022/08/18 04:11:19;;;;;;;11.50;9.03;;;;;;;19.86;100.00;97813.77;1679059;81;28144;-85
2022/08/18 04:13:47;;;;;;;12.73;9.63;;;;;;;19.87;100.00;97810.61;1643160;84;28268;-84
2022/08/18 04:16:13;;;;;;;12.73;9.20;;;;;;;19.72;100.00;97809.76;1663113;83;28125;-84
2022/08/18 04:18:40;;;;;;;10.88;8.45;;;;;;;19.58;100.00;97808.73;1672136;83;28107;-84
2022/08/18 04:21:09;;;;;;;10.65;8.68;;;;;;;19.48;100.00;97815.59;1640939;84;28087;-85
2022/08/18 04:23:37;;;;;;;12.50;9.15;;;;;;;19.46;100.00;97804.34;1668199;83;28709;-85
2022/08/18 04:26:05;;;;;;;11.75;8.85;;;;;;;19.60;100.00;97807.53;1660072;84;28108;-88
2022/08/18 04:28:32;;;;;;;10.00;8.88;;;;;;;19.71;100.00;97812.91;1648091;84;28118;-88
2022/08/18 04:31:13;;;;;;;12.30;8.73;;;;;;;19.86;100.00;97812.43;1674904;83;28083;-89
2022/08/18 04:33:40;;;;;;;11.55;9.18;;;;;;;20.01;100.00;97813.80;1683800;83;28039;-87
2022/08/18 04:36:13;;;;;;;10.38;8.05;;;;;;;20.09;100.00;97816.86;1674436;83;28212;-89
2022/08/18 04:41:12;;;;;;;9.58;8.48;;;;;;;20.12;100.00;97818.67;1690773;81;28157;-87
2022/08/18 04:43:40;;;;;;;10.70;8.18;;;;;;;20.14;100.00;97814.48;1699550;81;28104;-90
2022/08/18 04:46:07;;;;;;;11.03;8.55;;;;;;;20.15;100.00;97813.48;1704518;81;28042;-86
2022/08/18 04:48:39;;;;;;;11.20;8.15;;;;;;;20.07;100.00;97813.08;1700267;81;28098;-86
2022/08/18 04:51:06;;;;;;;;;;;;;;;20.07;100.00;97817.56;1683710;83;28004;-86
2022/08/18 04:53:46;;;;;;;12.18;9.30;;;;;;;20.16;100.00;97811.98;1685334;81;25241;-89
2022/08/18 04:56:24;;;;;;;11.08;8.20;;;;;;;20.28;100.00;97811.02;1714571;81;28045;-86
2022/08/18 04:58:50;;;;;;;10.75;9.03;;;;;;;20.34;100.00;97809.00;1708874;81;28088;-86
2022/08/18 05:01:20;;;;;;;11.18;8.93;;;;;;;20.28;100.00;97807.86;1713003;81;28068;-86
2022/08/18 05:03:51;;;;;;;11.73;9.13;;;;;;;20.35;100.00;97812.77;1694416;81;28109;-89
2022/08/18 05:06:19;;;;;;;10.82;9.18;;;;;;;20.48;100.00;97813.97;1709173;81;28251;-86
2022/08/18 05:09:03;;;;;;;10.13;8.53;;;;;;;20.55;100.00;97813.56;1701692;81;28088;-86
2022/08/18 05:11:32;;;;;;;10.90;8.78;;;;;;;20.51;100.00;97814.95;1708814;81;28096;-86
2022/08/18 05:13:57;;;;;;;13.30;8.67;;;;;;;20.55;100.00;97813.05;1718208;81;28064;-86
2022/08/18 05:16:24;;;;;;;11.97;9.25;;;;;;;20.70;100.00;97815.69;1685099;82;28132;-85
2022/08/18 05:18:52;;;;;;;12.95;9.25;;;;;;;20.73;100.00;97817.99;1702962;81;28021;-86
2022/08/18 05:21:21;;;;;;;11.88;9.25;;;;;;;20.76;100.00;97814.95;1686741;82;28041;-89
2022/08/18 05:23:49;;;;;;;17.65;10.53;;;;;;;20.87;100.00;97821.12;1725298;81;28073;-86
2022/08/18 05:26:17;;;;;;;12.18;10.20;;;;;;;21.00;100.00;97817.80;1696011;81;28217;-86
2022/08/18 05:28:45;;;;;;;12.78;10.48;;;;;;;21.10;100.00;97811.66;1710161;81;28145;-86
2022/08/18 05:31:17;;;;;;;12.37;10.10;;;;;;;21.13;100.00;97808.10;1710721;82;28064;-86
2022/08/18 05:33:46;;;;;;;13.75;9.98;;;;;;;21.16;100.00;97803.78;1702003;82;28078;-86
2022/08/18 05:39:25;;;;;;;15.50;9.88;;;;;;;21.34;100.00;97812.64;1716828;81;28139;-86
2022/08/18 05:42:01;;;;;;;13.38;10.23;;;;;;;21.39;100.00;97814.72;1691661;81;28123;-86
2022/08/18 05:44:34;;;;;;;12.93;9.60;;;;;;;21.39;100.00;97808.89;1681439;83;28046;-86
2022/08/18 05:47:22;;;;;;;13.68;9.95;;;;;;;21.33;100.00;97801.67;1675913;82;28141;-89
2022/08/18 05:49:50;;;;;;;13.62;10.13;;;;;;;21.24;100.00;97810.30;1716957;82;28140;-87
2022/08/18 05:52:22;;;;;;;12.55;9.90;;;;;;;21.15;100.00;97799.47;1697748;82;28210;-86
2022/08/18 05:57:44;;;;;;;13.50;10.10;;;;;;;21.13;100.00;97810.77;1708232;81;28100;-89
2022/08/18 06:00:11;;;;;;;10.75;9.58;;;;;;;21.11;100.00;97807.45;1713055;81;28110;-86
2022/08/18 06:02:53;;;;;;;12.98;10.10;;;;;;;21.15;100.00;97818.09;1716063;81;28081;-86
2022/08/18 06:05:23;;;;;;;14.78;10.25;;;;;;;21.28;100.00;97815.55;1714076;81;28080;-86
2022/08/18 06:08:03;;;;;;;14.75;10.28;;;;;;;21.47;100.00;97819.94;1688417;82;28689;-86
2022/08/18 06:10:30;;;;;;;13.58;10.38;;;;;;;21.63;100.00;97814.34;1705922;81;28036;-86
2022/08/18 06:12:59;;;;;;;11.90;9.90;;;;;;;21.76;100.00;97818.97;1703541;82;28086;-86
2022/08/18 06:15:47;;;;;;;13.22;10.90;;;;;;;21.83;100.00;97831.30;1670380;83;28043;-89
2022/08/18 06:18:16;;;;;;;11.68;10.25;;;;;;;21.90;100.00;97828.70;1679952;83;28092;-86
2022/08/18 06:20:51;;;;;;;12.33;10.90;;;;;;;21.86;100.00;97823.45;1696669;83;28077;-89
2022/08/18 06:23:35;;;;;;;13.62;10.82;;;;;;;21.82;100.00;97816.88;1695412;81;37578;-89
2022/08/18 06:26:24;;;;;;;15.03;10.35;;;;;;;21.78;100.00;97824.41;1696339;81;28099;-89
2022/08/18 06:28:54;;;;;;;14.23;11.45;;;;;;;21.77;100.00;97824.59;1689508;82;28105;-86
2022/08/18 06:31:28;;;;;;;14.65;11.48;;;;;;;21.77;100.00;97822.75;1712765;81;28259;-85
2022/08/18 06:34:20;;;;;;;14.90;11.30;;;;;;;21.79;100.00;97824.72;1699711;82;28256;-85
2022/08/18 06:37:12;;;;;;;11.97;10.67;;;;;;;21.85;100.00;97828.45;1696755;82;28060;-86
2022/08/18 06:39:45;;;;;;;14.00;10.98;;;;;;;22.03;100.00;97828.84;1700784;81;28084;-90
2022/08/18 06:42:11;;;;;;;13.78;11.05;;;;;;;22.19;100.00;97833.88;1714245;82;28089;-89
2022/08/18 06:44:43;;;;;;;13.55;10.93;;;;;;;22.32;100.00;97833.11;1717279;81;28189;-86
2022/08/18 06:47:28;;;;;;;15.10;11.68;;;;;;;22.43;100.00;97832.56;1693646;82;28116;-87
2022/08/18 06:50:15;;;;;;;14.45;11.45;;;;;;;22.45;100.00;97835.87;1709417;81;28115;-87
2022/08/18 06:52:56;;;;;;;17.05;12.13;;;;;;;22.52;100.00;97838.91;1707779;82;28136;-87
2022/08/18 06:55:41;;;;;;;13.43;11.37;;;;;;;22.63;100.00;97840.69;1695571;81;28119;-87
2022/08/18 06:58:21;;;;;;;12.58;10.53;;;;;;;22.71;100.00;97845.84;1703417;81;28148;-87
2022/08/18 07:00:56;;;;;;;13.43;10.58;;;;;;;22.72;100.00;97845.69;1715855;82;28243;-89
2022/08/18 07:03:41;;;;;;;16.77;10.80;;;;;;;22.73;100.00;97842.01;1704106;81;28074;-86
2022/08/18 07:06:20;;;;;;;12.50;11.00;;;;;;;22.78;100.00;97843.56;1719061;81;28181;-87
2022/08/18 07:08:49;;;;;;;15.40;11.33;;;;;;;22.88;100.00;97844.52;1712520;81;28091;-87
2022/08/18 07:11:23;;;;;;;14.50;11.18;;;;;;;23.00;100.00;97842.11;1715148;81;28115;-86
2022/08/18 07:13:54;;;;;;;14.83;12.03;;;;;;;23.07;100.00;97849.64;1690292;82;28097;-86
2022/08/18 07:16:29;;;;;;;15.35;11.30;;;;;;;23.16;100.00;97843.08;1704733;82;28128;-88
2022/08/18 07:19:15;;;;;;;16.62;11.70;;;;;;;23.28;100.00;97843.64;1682362;83;28091;-87
2022/08/18 07:21:43;;;;;;;13.13;10.88;;;;;;;23.37;100.00;97838.92;1690226;82;28116;-86
2022/08/18 07:24:17;;;;;;;13.55;11.30;;;;;;;23.42;100.00;97837.80;1685631;81;28246;-86
2022/08/18 07:27:03;;;;;;;11.83;10.43;;;;;;;23.46;100.00;97835.06;1690604;83;28091;-86
2022/08/18 07:29:33;;;;;;;12.95;10.38;;;;;;;23.47;100.00;97835.88;1681459;81;28215;-86
2022/08/18 07:32:06;;;;;;;14.78;10.80;;;;;;;23.50;100.00;97833.65;1701547;81;28218;-86
2022/08/18 07:34:47;;;;;;;14.23;11.08;;;;;;;23.52;100.00;97831.58;1690302;81;28210;-89
2022/08/18 07:37:18;;;;;;;;;;;;;;;23.58;100.00;97829.43;1720798;81;28094;-89
2022/08/18 07:39:51;;;;;;;13.63;11.17;;;;;;;23.68;100.00;97830.36;1679764;83;25977;-86
2022/08/18 07:42:33;;;;;;;11.90;10.53;;;;;;;23.73;100.00;97830.56;1642100;85;31915;-87
2022/08/18 07:45:06;;;;;;;15.72;11.00;;;;;;;23.82;100.00;97825.85;1661358;83;28253;-90
2022/08/18 07:47:42;;;;;;;12.30;10.18;;;;;;;23.90;100.00;97829.64;1683379;83;28121;-90
2022/08/18 07:50:08;;;;;;;13.28;11.08;;;;;;;23.96;100.00;97829.64;1676525;83;28137;-87
2022/08/18 07:52:41;;;;;;;13.45;10.03;;;;;;;24.05;100.00;97830.27;1642043;84;29078;-87
2022/08/18 07:55:26;;;;;;;16.40;10.48;;;;;;;24.14;100.00;97829.84;1662690;83;28181;-87
2022/08/18 07:57:59;;;;;;;12.45;10.05;;;;;;;24.21;100.00;97829.88;1663570;83;28193;-87
2022/08/18 08:00:38;;;;;;;13.98;10.13;;;;;;;24.30;100.00;97831.80;1653846;84;28172;-90
2022/08/18 08:03:32;;;;;;;13.53;10.65;;;;;;;24.36;100.00;97833.12;1612309;85;28103;-86
2022/08/18 08:06:20;;;;;;;14.18;10.75;;;;;;;24.45;100.00;97831.04;1699763;81;28088;-89
2022/08/18 08:09:23;;;;;;;14.85;11.88;;;;;;;24.55;100.00;97836.77;1699504;82;28155;-87
2022/08/18 08:11:59;;;;;;;15.68;11.95;;;;;;;24.67;100.00;97834.27;1699738;81;28097;-86
2022/08/18 08:14:38;;;;;;;15.50;11.75;;;;;;;24.78;100.00;97837.11;1678988;82;28037;-89
2022/08/18 08:17:24;;;;;;;12.70;10.30;;;;;;;24.88;100.00;97838.85;1691133;81;28156;-89
2022/08/18 08:19:54;;;;;;;12.80;11.45;;;;;;;24.97;100.00;97838.11;1699968;81;28098;-89
2022/08/18 08:22:29;;;;;;;15.35;11.40;;;;;;;25.07;100.00;97837.65;1646470;81;28077;-86
2022/08/18 08:25:20;;;;;;;12.88;10.48;;;;;;;25.15;100.00;97840.09;1712663;81;28171;-89
2022/08/18 08:28:06;;;;;;;12.50;10.38;;;;;;;25.23;100.00;97841.99;1712772;81;28108;-86
2022/08/18 08:30:38;;;;;;;11.12;9.93;;;;;;;25.29;100.00;97842.48;1693688;81;28010;-85
2022/08/18 08:33:10;;;;;;;12.03;10.75;;;;;;;25.35;100.00;97845.64;1697689;81;28077;-86
2022/08/18 08:35:46;;;;;;;13.88;10.53;;;;;;;25.41;100.00;97844.78;1714150;81;28091;-86
2022/08/18 08:38:20;;;;;;;15.30;11.25;;;;;;;25.51;100.00;97846.16;1687690;81;28161;-86
2022/08/18 08:41:05;;;;;;;13.48;10.48;;;;;;;25.60;100.00;97851.06;1707824;81;25059;-86
2022/08/18 08:43:45;;;;;;;13.55;10.88;;;;;;;25.65;100.00;97851.75;1674025;83;28070;-86
2022/08/18 08:46:21;;;;;;;12.88;10.68;;;;;;;25.69;100.00;97851.64;1707888;81;28124;-89
2022/08/18 08:48:54;;;;;;;15.20;11.48;;;;;;;25.77;100.00;97858.06;1715574;81;28051;-86
2022/08/18 08:51:42;;;;;;;15.13;10.55;;;;;;;25.82;100.00;97855.03;1704853;81;28207;-86
2022/08/18 08:54:27;;;;;;;12.60;10.82;;;;;;;25.92;100.00;97853.20;1669978;83;28031;-89
2022/08/18 08:56:56;;;;;;;11.65;9.93;;;;;;;26.01;100.00;97861.28;1682691;82;28120;-89
2022/08/18 08:59:23;;;;;;;13.08;9.63;;;;;;;26.08;100.00;97860.69;1685525;83;28014;-89
2022/08/18 09:02:18;;;;;;;11.93;9.80;;;;;;;26.14;100.00;97865.18;1675549;83;28089;-86
2022/08/18 09:04:50;;;;;;;13.43;10.20;;;;;;;26.19;100.00;97857.30;1659110;82;28168;-86
2022/08/18 09:07:49;;;;;;;12.80;9.45;;;;;;;26.31;100.00;97856.60;1669631;83;28115;-86
2022/08/18 09:10:38;;;;;;;11.97;10.70;;;;;;;26.38;100.00;97861.39;1680622;83;28181;-86
2022/08/18 09:13:25;;;;;;;12.45;9.88;;;;;;;26.49;100.00;97859.32;1642703;84;28259;-86
2022/08/18 09:16:28;;;;;;;12.35;9.13;;;;;;;26.58;100.00;97855.30;1650653;84;28252;-86
2022/08/18 09:19:15;;;;;;;12.33;9.30;;;;;;;26.68;100.00;97850.73;1651749;84;28091;-86
2022/08/18 09:21:50;;;;;;;13.10;9.88;;;;;;;26.74;100.00;97857.38;1676137;83;28155;-86
2022/08/18 09:24:29;;;;;;;11.95;8.85;;;;;;;26.81;100.00;97850.60;1696679;81;28176;-88
2022/08/18 09:27:05;;;;;;;13.20;9.75;;;;;;;26.89;100.00;97855.20;1716159;81;28017;-86
2022/08/18 09:29:47;;;;;;;10.63;9.15;;;;;;;26.97;100.00;97854.05;1679378;82;28199;-86
2022/08/18 09:32:24;;;;;;;10.38;9.28;;;;;;;27.08;100.00;97853.30;1707284;81;28136;-86
2022/08/18 09:35:10;;;;;;;10.45;8.63;;;;;;;27.10;100.00;97849.87;1718777;81;28150;-86
2022/08/18 09:43:38;;;;;;;13.30;9.48;;;;;;;27.21;100.00;97855.00;1690194;81;28061;-85
2022/08/18 09:46:07;;;;;;;11.60;8.83;;;;;;;27.24;100.00;97851.84;1679366;82;28104;-88
2022/08/18 09:48:35;;;;;;;10.05;8.23;;;;;;;27.25;100.00;97838.71;1702211;81;28057;-86
2022/08/18 09:51:17;;;;;;;9.03;8.15;;;;;;;27.30;100.00;97842.36;1698628;81;28139;-85
2022/08/18 09:53:52;;;;;;;11.08;8.73;;;;;;;27.38;100.00;97832.64;1700490;81;28251;-86
2022/08/18 09:56:52;;;;;;;11.08;8.78;;;;;;;27.47;100.00;97833.95;1710043;81;28169;-85
2022/08/18 09:59:47;;;;;;;10.23;8.40;;;;;;;27.54;100.00;97831.20;1681915;82;28194;-86
2022/08/18 10:02:32;;;;;;;11.30;8.58;;;;;;;27.63;100.00;97824.95;1701609;82;28094;-88
2022/08/18 10:05:20;;;;;;;11.70;8.15;;;;;;;27.64;100.00;97822.56;1694901;82;28073;-87
2022/08/18 10:08:10;;;;;;;10.45;8.28;;;;;;;27.68;100.00;97824.56;1704299;82;28230;-86
2022/08/18 10:10:48;;;;;;;10.48;8.53;;;;;;;27.70;100.00;97814.41;1697595;82;28209;-85
2022/08/18 10:13:29;;;;;;;9.25;7.70;;;;;;;27.76;100.00;97812.14;1702820;82;28127;-88
2022/08/18 10:16:05;;;;;;;10.58;7.83;;;;;;;27.82;100.00;97809.84;1681661;81;28319;-88
2022/08/18 10:18:35;;;;;;;10.23;8.45;;;;;;;27.86;100.00;97807.00;1700870;81;28246;-85
2022/08/18 10:21:12;;;;;;;8.88;7.62;;;;;;;27.89;100.00;97799.80;1705175;81;28091;-85
2022/08/18 10:23:54;;;;;;;10.15;8.05;;;;;;;27.95;100.00;97791.84;1710621;82;28009;-85
2022/08/18 10:26:33;;;;;;;9.70;7.80;;;;;;;28.00;100.00;97794.66;1717401;81;28103;-85
2022/08/18 10:29:11;;;;;;;8.90;8.00;;;;;;;28.01;100.00;97790.39;1703687;81;28143;-86
2022/08/18 10:31:56;;;;;;;9.10;8.20;;;;;;;28.05;100.00;97779.45;1686696;81;28135;-89
2022/08/18 10:34:44;;;;;;;10.05;8.75;;;;;;;28.07;100.00;97780.56;1698427;83;28088;-85
2022/08/18 10:37:39;;;;;;;9.93;7.95;;;;;;;28.12;100.00;97772.11;1711945;81;28102;-86
2022/08/18 10:40:12;;;;;;;9.75;8.03;;;;;;;28.21;100.00;97769.88;1693758;81;28084;-86
2022/08/18 10:42:53;;;;;;;10.70;7.87;;;;;;;28.25;100.00;97775.09;1720796;81;28062;-88
2022/08/18 10:45:23;;;;;;;9.83;7.67;;;;;;;28.30;100.00;97764.44;1693061;81;28157;-85
2022/08/18 10:48:15;;;;;;;10.60;7.80;;;;;;;28.41;100.00;97778.41;1704606;81;28008;-85
2022/08/18 10:50:54;;;;;;;8.33;7.53;;;;;;;28.48;100.00;97773.70;1689821;82;28235;-89
2022/08/18 10:53:48;;;;;;;10.95;7.75;;;;;;;28.54;100.00;97778.13;1712370;81;28050;-85
2022/08/18 10:56:42;;;;;;;8.35;7.25;;;;;;;28.55;100.00;97779.77;1683741;82;28058;-89
2022/08/18 10:59:30;;;;;;;8.88;7.17;;;;;;;28.58;100.00;97773.94;1687244;83;28002;-85
2022/08/18 11:02:13;;;;;;;8.63;7.80;;;;;;;28.58;100.00;97777.97;1656390;84;28261;-85
2022/08/18 11:04:48;;;;;;;10.50;7.62;;;;;;;28.59;100.00;97775.55;1630742;85;28041;-86
2022/08/18 11:07:18;;;;;;;12.18;8.28;;;;;;;28.61;100.00;97761.33;1647470;83;28270;-86
2022/08/18 11:09:50;;;;;;;9.90;7.83;;;;;;;28.64;100.00;97751.41;1711677;81;28085;-86
2022/08/18 11:12:37;;;;;;;9.83;7.45;;;;;;;28.74;100.00;97760.27;1706144;81;28181;-89
2022/08/18 11:15:10;;;;;;;8.18;7.37;;;;;;;28.78;100.00;97750.66;1709863;82;28210;-86
2022/08/18 11:17:45;;;;;;;16.93;8.00;;;;;;;28.79;100.00;97746.91;1718168;81;28150;-88
2022/08/18 11:20:15;;;;;;;9.60;7.35;;;;;;;28.84;100.00;97744.31;1721804;81;28047;-85
2022/08/18 11:22:54;;;;;;;9.10;7.30;;;;;;;28.89;100.00;97745.75;1704627;81;28156;-88
2022/08/18 11:25:26;;;;;;;8.43;7.58;;;;;;;28.95;100.00;97742.63;1713044;81;28004;-89
2022/08/18 11:27:53;;;;;;;8.50;7.50;;;;;;;28.93;100.00;97737.47;1707818;81;28311;-88
2022/08/18 11:30:20;;;;;;;9.75;7.65;;;;;;;28.94;100.00;97735.59;1718642;81;28234;-86
2022/08/18 11:32:49;;;;;;;8.73;7.85;;;;;;;28.93;100.00;97728.04;1694039;81;28065;-88
2022/08/18 11:35:28;;;;;;;11.15;7.42;;;;;;;28.95;99.69;97721.89;1692813;81;28257;-86
2022/08/18 11:38:00;;;;;;;9.20;7.90;;;;;;;28.99;99.05;97728.42;1722292;81;28086;-86
2022/08/18 11:40:41;;;;;;;9.50;7.30;;;;;;;29.03;98.38;97728.74;1703635;81;28084;-86
2022/08/18 11:43:19;;;;;;;9.00;7.87;;;;;;;29.04;97.79;97730.38;1708515;81;28086;-87
2022/08/18 11:46:08;;;;;;;9.85;7.40;;;;;;;29.10;97.83;97731.59;1713194;81;28049;-86
2022/08/18 11:48:38;;;;;;;9.78;7.47;;;;;;;29.19;97.81;97733.34;1693770;81;28084;-86
2022/08/18 11:51:16;;;;;;;8.45;6.87;;;;;;;29.24;97.52;97717.27;1705707;81;28246;-87
2022/08/18 11:53:52;;;;;;;8.53;7.37;;;;;;;29.26;96.88;97726.45;1717402;81;28125;-88
2022/08/18 11:56:23;;;;;;;10.65;7.28;;;;;;;29.32;96.55;97724.17;1716047;81;28109;-88
2022/08/18 11:59:01;;;;;;;8.85;6.70;;;;;;;29.35;96.31;97721.80;1702555;82;28082;-88
2022/08/18 12:01:34;;;;;;;10.13;6.90;;;;;;;29.39;95.69;97730.23;1712733;81;28204;-85
2022/08/18 12:04:24;;;;;;;11.03;7.58;;;;;;;29.40;95.00;97720.53;1711916;81;28178;-88
2022/08/18 12:06:58;;;;;;;8.05;6.35;;;;;;;29.48;94.84;97715.27;1711367;81;28072;-85
2022/08/18 12:10:03;;;;;;;8.13;6.28;;;;;;;29.49;94.07;97708.30;1711174;81;28072;-86
2022/08/18 12:12:31;;;;;;;8.33;7.50;;;;;;;29.49;93.34;97711.52;1699124;81;28500;-86
2022/08/18 12:15:04;;;;;;;9.48;7.00;;;;;;;29.49;92.97;97708.83;1698249;81;28111;-85
2022/08/18 12:17:32;;;;;;;8.28;6.60;;;;;;;29.49;92.39;97703.43;1705181;82;28107;-85